createdAt,value
2019-04-14T00:02:35.852Z,98881.63
2019-04-14T00:05:21.079Z,98885.60
2019-04-14T00:08:06.792Z,98874.54
2019-04-14T00:10:52.854Z,98877.17
2019-04-14T00:13:37.541Z,98877.83
2019-04-14T00:16:22.788Z,98882.13
2019-04-14T00:19:08.743Z,98886.09
2019-04-14T00:21:54.400Z,98892.55
2019-04-14T00:24:40.046Z,98884.34
2019-04-14T00:27:25.885Z,98889.43
2019-04-14T00:30:11.894Z,98890.08
2019-04-14T00:32:57.428Z,98891.30
2019-04-14T00:35:42.786Z,98891.94
2019-04-14T00:38:28.064Z,98886.84
2019-04-14T00:41:13.625Z,98879.85
2019-04-14T00:43:59.235Z,98888.14
2019-04-14T00:46:45.151Z,98890.91
2019-04-14T00:49:31.166Z,98882.89
2019-04-14T00:52:16.846Z,98877.16
2019-04-14T00:55:03.291Z,98885.17
2019-04-14T00:57:48.663Z,98885.28
2019-04-14T01:00:34.187Z,98898.56
2019-04-14T01:03:19.879Z,98893.20
2019-04-14T01:06:05.337Z,98888.13
2019-04-14T01:08:51.162Z,98885.55
2019-04-14T01:11:35.883Z,98886.00
2019-04-14T01:14:21.263Z,98883.08
2019-04-14T01:17:06.850Z,98882.42
2019-04-14T01:19:52.671Z,98889.98
2019-04-14T01:22:38.094Z,98891.16
2019-04-14T01:25:22.408Z,98889.14
2019-04-14T01:28:06.967Z,98889.87
2019-04-14T01:30:52.325Z,98888.70
2019-04-14T01:33:37.853Z,98887.11
2019-04-14T01:36:23.485Z,98890.52
2019-04-14T01:39:08.924Z,98894.14
2019-04-14T01:41:54.380Z,98891.45
2019-04-14T01:44:39.637Z,98894.33
2019-04-14T01:47:24.889Z,98895.51
2019-04-14T01:50:10.537Z,98898.81
2019-04-14T01:52:54.665Z,98892.54
2019-04-14T01:55:39.488Z,98904.17
2019-04-14T01:58:25.056Z,98896.22
2019-04-14T02:01:10.550Z,98892.91
2019-04-14T02:03:54.961Z,98897.88
2019-04-14T02:06:39.900Z,98898.52
2019-04-14T02:09:25.134Z,98900.25
2019-04-14T02:12:10.572Z,98896.80
2019-04-14T02:14:56.260Z,98894.85
2019-04-14T02:17:41.640Z,98891.69
2019-04-14T02:20:27.149Z,98888.58
2019-04-14T02:23:12.540Z,98889.23
2019-04-14T02:25:57.948Z,98885.84
2019-04-14T02:28:42.308Z,98889.66
2019-04-14T02:31:52.885Z,98892.19
2019-04-14T02:34:41.700Z,98894.02
2019-04-14T02:37:26.368Z,98890.34
2019-04-14T02:42:56.307Z,98901.59
2019-04-14T02:45:58.766Z,98899.77
2019-04-14T02:48:44.149Z,98897.08
2019-04-14T02:51:23.285Z,98899.12
2019-04-14T02:53:57.746Z,98903.64
2019-04-14T02:56:58.898Z,98901.05
2019-04-14T02:59:45.266Z,98903.83
2019-04-14T03:05:09.428Z,98897.38
2019-04-14T03:08:04.277Z,98903.45
2019-04-14T03:10:42.147Z,98899.56
2019-04-14T03:13:35.268Z,98909.55
2019-04-14T03:18:58.179Z,98906.95
2019-04-14T03:21:49.301Z,98911.20
2019-04-14T03:24:31.918Z,98913.70
2019-04-14T03:27:35.481Z,98910.09
2019-04-14T03:30:23.346Z,98909.82
2019-04-14T03:36:06.666Z,98911.55
2019-04-14T03:38:50.208Z,98915.16
2019-04-14T03:41:24.142Z,98919.67
2019-04-14T03:43:54.928Z,98912.02
2019-04-14T03:46:50.693Z,98909.45
2019-04-14T03:49:40.791Z,98916.81
2019-04-14T03:52:27.609Z,98903.35
2019-04-14T03:54:57.032Z,98911.74
2019-04-14T03:57:29.607Z,98908.69
2019-04-14T04:00:15.864Z,98915.98
2019-04-14T04:03:00.587Z,98919.84
2019-04-14T04:05:45.634Z,98913.00
2019-04-14T04:08:31.303Z,98918.42
2019-04-14T04:11:15.760Z,98918.63
2019-04-14T04:14:00.689Z,98919.09
2019-04-14T04:16:46.107Z,98921.05
2019-04-14T04:19:31.557Z,98919.11
2019-04-14T04:22:17.200Z,98924.42
2019-04-14T04:25:02.963Z,98926.05
2019-04-14T04:27:48.362Z,98927.70
2019-04-14T04:30:34.063Z,98929.88
2019-04-14T04:33:19.896Z,98930.86
2019-04-14T04:36:05.287Z,98932.53
2019-04-14T04:38:50.992Z,98931.03
2019-04-14T04:41:36.436Z,98938.02
2019-04-14T04:44:20.924Z,98941.74
2019-04-14T04:47:05.766Z,98943.83
2019-04-14T04:49:51.239Z,98949.16
2019-04-14T04:52:36.489Z,98948.64
2019-04-14T04:55:22.007Z,98945.09
2019-04-14T04:58:07.787Z,98940.17
2019-04-14T05:00:54.170Z,98950.32
2019-04-14T05:03:38.586Z,98948.50
2019-04-14T05:06:59.060Z,98940.94
2019-04-14T05:09:44.830Z,98942.94
2019-04-14T05:12:29.044Z,98947.84
2019-04-14T05:15:14.015Z,98944.84
2019-04-14T05:17:58.226Z,98945.22
2019-04-14T05:20:44.113Z,98958.28
2019-04-14T05:23:29.820Z,98958.11
2019-04-14T05:26:15.497Z,98965.03
2019-04-14T05:29:01.397Z,98959.59
2019-04-14T05:31:46.838Z,98968.27
2019-04-14T05:34:32.630Z,98969.88
2019-04-14T05:37:18.225Z,98962.09
2019-04-14T05:40:05.903Z,98957.54
2019-04-14T05:42:51.513Z,98963.35
2019-04-14T05:45:37.341Z,98964.71
2019-04-14T05:48:22.860Z,98964.15
2019-04-14T05:51:08.524Z,98966.63
2019-04-14T05:53:53.109Z,98964.20
2019-04-14T05:56:39.147Z,98964.62
2019-04-14T05:59:24.678Z,98964.48
2019-04-14T06:02:09.648Z,98967.70
2019-04-14T06:04:55.000Z,98971.22
2019-04-14T06:07:39.985Z,98964.70
2019-04-14T06:10:25.063Z,98972.65
2019-04-14T06:13:11.706Z,98969.33
2019-04-14T06:15:55.659Z,98972.66
2019-04-14T06:18:40.262Z,98967.75
2019-04-14T06:21:24.820Z,98971.67
2019-04-14T06:24:09.477Z,98972.24
2019-04-14T06:26:53.831Z,98976.53
2019-04-14T06:29:38.592Z,98973.50
2019-04-14T06:32:23.136Z,98973.13
2019-04-14T06:35:08.321Z,98981.47
2019-04-14T06:37:53.148Z,98981.74
2019-04-14T06:40:37.823Z,98980.68
2019-04-14T06:43:22.371Z,98979.03
2019-04-14T06:46:06.958Z,98984.30
2019-04-14T06:48:51.379Z,98982.63
2019-04-14T06:51:35.762Z,98975.77
2019-04-14T06:54:20.840Z,98974.53
2019-04-14T06:57:05.705Z,98969.11
2019-04-14T06:59:50.967Z,98977.41
2019-04-14T07:02:35.733Z,98974.16
2019-04-14T07:05:20.185Z,98981.49
2019-04-14T07:08:04.642Z,98978.76
2019-04-14T07:10:49.402Z,98980.46
2019-04-14T07:13:34.011Z,98985.34
2019-04-14T07:16:18.722Z,98982.93
2019-04-14T07:19:03.688Z,98991.58
2019-04-14T07:21:48.558Z,98987.94
2019-04-14T07:24:33.314Z,98994.52
2019-04-14T07:27:17.971Z,98990.67
2019-04-14T07:30:04.077Z,98992.70
2019-04-14T07:32:48.531Z,98987.03
2019-04-14T07:35:33.202Z,98995.63
2019-04-14T07:38:17.634Z,98991.88
2019-04-14T07:41:02.709Z,98992.83
2019-04-14T07:43:47.676Z,99000.95
2019-04-14T07:46:32.138Z,98989.34
2019-04-14T07:49:16.781Z,98997.27
2019-04-14T07:52:01.341Z,98998.91
2019-04-14T07:54:46.302Z,98999.83
2019-04-14T07:57:30.978Z,99001.00
2019-04-14T08:00:16.042Z,99002.92
2019-04-14T08:03:00.651Z,99000.13
2019-04-14T08:05:45.352Z,98996.59
2019-04-14T08:08:29.916Z,98997.86
2019-04-14T08:11:14.491Z,99006.45
2019-04-14T08:13:58.987Z,98996.61
2019-04-14T08:16:43.988Z,99012.41
2019-04-14T08:19:28.956Z,99007.48
2019-04-14T08:22:13.714Z,99006.58
2019-04-14T08:24:58.784Z,99005.95
2019-04-14T08:27:43.241Z,99009.01
2019-04-14T08:30:28.001Z,99024.38
2019-04-14T08:33:12.761Z,99013.02
2019-04-14T08:35:57.900Z,99010.91
2019-04-14T08:38:42.903Z,99023.17
2019-04-14T08:41:27.470Z,99035.29
2019-04-14T08:44:12.017Z,99026.52
2019-04-14T08:46:56.672Z,99018.78
2019-04-14T08:49:41.460Z,99018.65
2019-04-14T08:52:25.788Z,99013.23
2019-04-14T08:55:10.545Z,99018.80
2019-04-14T08:57:55.338Z,99011.70
2019-04-14T09:00:39.557Z,99010.98
2019-04-14T09:03:24.222Z,99013.59
2019-04-14T09:06:08.878Z,99007.66
2019-04-14T09:08:53.238Z,99003.84
2019-04-14T09:11:39.121Z,99045.00
2019-04-14T09:14:23.987Z,99011.58
2019-04-14T09:17:08.302Z,99015.95
2019-04-14T09:19:53.213Z,99016.20
2019-04-14T09:22:37.754Z,99020.05
2019-04-14T09:25:22.518Z,99018.05
2019-04-14T09:28:07.588Z,99012.11
2019-04-14T09:30:52.295Z,99019.22
2019-04-14T09:33:36.805Z,99035.80
2019-04-14T09:36:21.468Z,98820.78
2019-04-14T09:39:06.170Z,99015.88
2019-04-14T09:41:50.720Z,99013.28
2019-04-14T09:44:35.134Z,99014.22
2019-04-14T09:47:19.897Z,99010.05
2019-04-14T09:50:05.371Z,99011.11
2019-04-14T09:52:49.783Z,99011.01
2019-04-14T09:55:34.233Z,99011.88
2019-04-14T09:58:18.769Z,99013.68
2019-04-14T10:01:04.009Z,99018.20
2019-04-14T10:03:48.059Z,99010.50
2019-04-14T10:06:32.612Z,99015.95
2019-04-14T10:09:17.169Z,99023.95
2019-04-14T10:12:02.033Z,99020.89
2019-04-14T10:14:46.384Z,99038.36
2019-04-14T10:17:30.870Z,99045.41
2019-04-14T10:20:15.501Z,99048.59
2019-04-14T10:23:00.160Z,99044.40
2019-04-14T10:25:44.508Z,99043.69
2019-04-14T10:28:29.166Z,99040.26
2019-04-14T10:31:13.929Z,99039.27
2019-04-14T10:33:58.792Z,99043.84
2019-04-14T10:36:43.452Z,99047.89
2019-04-14T10:39:28.113Z,99052.92
2019-04-14T10:42:13.192Z,99059.19
2019-04-14T10:44:57.841Z,99052.94
2019-04-14T10:47:42.137Z,99046.91
2019-04-14T10:50:31.040Z,99043.93
2019-04-14T10:53:12.814Z,99045.83
2019-04-14T10:55:57.193Z,99051.95
2019-04-14T10:58:42.877Z,99052.79
2019-04-14T11:01:28.765Z,99055.16
2019-04-14T11:04:13.431Z,99055.32
2019-04-14T11:06:58.109Z,99058.39
2019-04-14T11:09:42.847Z,99052.41
2019-04-14T11:12:27.913Z,99062.72
2019-04-14T11:15:15.599Z,99056.86
2019-04-14T11:18:00.205Z,99059.16
2019-04-14T11:20:44.964Z,99069.14
2019-04-14T11:23:30.656Z,99065.24
2019-04-14T11:26:15.099Z,99069.84
2019-04-14T11:28:59.759Z,99066.77
2019-04-14T11:31:44.623Z,99068.28
2019-04-14T11:34:29.494Z,99071.88
2019-04-14T11:37:14.044Z,99072.52
2019-04-14T11:39:58.843Z,99071.39
2019-04-14T11:42:52.121Z,99075.11
2019-04-14T11:45:31.401Z,99073.49
2019-04-14T11:48:16.289Z,99071.73
2019-04-14T11:51:01.233Z,99081.55
2019-04-14T11:53:46.009Z,99079.30
2019-04-14T11:56:30.172Z,99082.59
2019-04-14T11:59:14.602Z,99079.83
2019-04-14T12:01:58.846Z,99077.50
2019-04-14T12:04:43.813Z,99080.16
2019-04-14T12:07:28.574Z,99080.67
2019-04-14T12:10:13.335Z,99086.43
2019-04-14T12:12:57.789Z,99084.68
2019-04-14T12:15:42.449Z,99087.65
2019-04-14T12:18:26.933Z,99095.00
2019-04-14T12:21:11.766Z,99086.20
2019-04-14T12:23:56.828Z,99100.56
2019-04-14T12:26:41.602Z,99097.48
2019-04-14T12:29:26.799Z,99091.69
2019-04-14T12:32:12.767Z,99101.34
2019-04-14T12:34:57.666Z,99108.53
2019-04-14T12:37:42.591Z,99107.61
2019-04-14T12:40:27.126Z,99107.98
2019-04-14T12:43:11.306Z,99101.52
2019-04-14T12:45:56.014Z,99107.91
2019-04-14T12:48:40.862Z,99116.15
2019-04-14T12:51:25.578Z,99116.16
2019-04-14T12:54:10.342Z,99116.86
2019-04-14T12:56:55.027Z,99113.22
2019-04-14T12:59:40.116Z,99109.43
2019-04-14T13:02:24.963Z,99108.02
2019-04-14T13:05:10.104Z,99111.33
2019-04-14T13:07:54.194Z,99107.33
2019-04-14T13:10:38.578Z,99103.80
2019-04-14T13:13:23.104Z,99108.95
2019-04-14T13:16:07.384Z,99101.71
2019-04-14T13:18:52.074Z,99103.52
2019-04-14T13:21:36.939Z,99118.38
2019-04-14T13:24:21.289Z,99097.66
2019-04-14T13:27:06.152Z,99105.70
2019-04-14T13:29:50.889Z,99104.08
2019-04-14T13:32:36.464Z,99102.08
2019-04-14T13:35:21.768Z,99101.11
2019-04-14T13:38:06.119Z,99099.38
2019-04-14T13:40:50.985Z,99090.17
2019-04-14T13:43:35.595Z,99100.80
2019-04-14T13:46:20.610Z,99095.83
2019-04-14T13:49:05.225Z,99103.64
2019-04-14T13:51:49.721Z,99095.87
2019-04-14T13:54:33.870Z,99102.23
2019-04-14T13:57:18.733Z,99105.28
2019-04-14T14:00:12.096Z,99109.14
2019-04-14T14:02:56.732Z,99108.87
2019-04-14T14:05:43.425Z,99097.02
2019-04-14T14:08:27.457Z,99098.23
2019-04-14T14:11:12.479Z,99103.80
2019-04-14T14:13:57.135Z,99101.24
2019-04-14T14:16:41.813Z,99094.59
2019-04-14T14:19:26.254Z,99097.02
2019-04-14T14:22:10.822Z,99091.52
2019-04-14T14:24:55.362Z,99091.22
2019-04-14T14:27:40.329Z,99086.63
2019-04-14T14:30:24.886Z,99101.37
2019-04-14T14:33:09.646Z,99102.95
2019-04-14T14:35:54.367Z,99106.08
2019-04-14T14:38:38.883Z,99099.05
2019-04-14T14:41:23.731Z,99102.01
2019-04-14T14:44:08.392Z,99097.52
2019-04-14T14:46:53.457Z,99105.39
2019-04-14T14:49:37.803Z,99101.87
2019-04-14T14:52:22.124Z,99100.13
2019-04-14T14:55:09.071Z,99098.12
2019-04-14T14:57:53.884Z,99101.20
2019-04-14T15:00:38.186Z,99103.84
2019-04-14T15:03:23.055Z,99108.91
2019-04-14T15:06:07.401Z,99101.47
2019-04-14T15:08:51.963Z,99102.80
2019-04-14T15:11:36.925Z,99098.84
2019-04-14T15:14:21.996Z,99107.99
2019-04-14T15:17:08.384Z,99131.13
2019-04-14T15:19:53.566Z,99110.73
2019-04-14T15:22:38.226Z,99115.84
2019-04-14T15:25:23.297Z,99112.09
2019-04-14T15:28:08.019Z,99118.22
2019-04-14T15:30:52.715Z,99122.27
2019-04-14T15:33:39.305Z,99120.59
2019-04-14T15:36:23.670Z,99125.27
2019-04-14T15:39:08.126Z,99135.03
2019-04-14T15:41:52.785Z,99122.53
2019-04-14T15:44:37.751Z,99125.13
2019-04-14T15:47:23.085Z,99121.05
2019-04-14T15:50:07.993Z,99004.77
2019-04-14T15:52:53.782Z,99121.25
2019-04-14T15:55:38.752Z,99146.66
2019-04-14T15:58:26.597Z,99124.81
2019-04-14T16:01:11.259Z,99117.55
2019-04-14T16:03:56.048Z,99111.05
2019-04-14T16:06:40.527Z,99115.63
2019-04-14T16:09:26.458Z,99119.16
2019-04-14T16:12:11.319Z,99125.94
2019-04-14T16:14:56.586Z,99148.20
2019-04-14T16:17:41.348Z,99130.49
2019-04-14T16:20:26.520Z,99131.63
2019-04-14T16:23:12.207Z,99128.00
2019-04-14T16:25:56.655Z,99128.02
2019-04-14T16:28:41.105Z,99124.93
2019-04-14T16:31:27.921Z,99122.75
2019-04-14T16:34:13.097Z,99122.63
2019-04-14T16:36:58.160Z,99123.92
2019-04-14T16:39:43.244Z,99127.53
2019-04-14T16:42:27.895Z,99127.62
2019-04-14T16:45:12.971Z,99127.33
2019-04-14T16:47:57.925Z,99126.25
2019-04-14T16:50:42.708Z,99124.95
2019-04-14T16:53:27.353Z,99130.28
2019-04-14T16:56:11.891Z,99132.92
2019-04-14T16:58:56.249Z,99141.60
2019-04-14T17:01:40.810Z,99141.54
2019-04-14T17:04:25.427Z,99142.75
2019-04-14T17:07:10.330Z,99144.91
2019-04-14T17:10:01.717Z,99139.00
2019-04-14T17:15:52.879Z,99151.47
2019-04-14T17:18:38.048Z,99142.97
2019-04-14T17:21:23.119Z,99155.56
2019-04-14T17:24:16.406Z,99155.65
2019-04-14T17:26:54.281Z,99159.79
2019-04-14T17:29:39.146Z,99159.73
2019-04-14T17:32:24.316Z,99165.61
2019-04-14T17:35:10.203Z,99167.58
2019-04-14T17:37:54.861Z,99174.97
2019-04-14T17:40:39.832Z,99172.92
2019-04-14T17:43:24.695Z,99186.14
2019-04-14T17:46:11.401Z,99194.98
2019-04-14T17:48:55.962Z,99180.25
2019-04-14T17:51:45.441Z,99184.20
2019-04-14T17:54:30.076Z,99180.01
2019-04-14T17:57:14.648Z,99192.77
2019-04-14T18:00:00.138Z,99194.78
2019-04-14T18:02:46.011Z,99198.70
2019-04-14T18:05:30.468Z,99201.16
2019-04-14T18:08:16.217Z,99203.97
2019-04-14T18:11:01.118Z,99203.55
2019-04-14T18:13:46.753Z,99205.08
2019-04-14T18:16:33.301Z,99202.20
2019-04-14T18:19:17.757Z,99206.38
2019-04-14T18:22:02.825Z,99216.47
2019-04-14T18:24:47.487Z,99213.46
2019-04-14T18:27:32.244Z,99216.16
2019-04-14T18:30:16.983Z,99219.42
2019-04-14T18:33:01.844Z,99217.85
2019-04-14T18:35:47.044Z,99215.25
2019-04-14T18:38:31.909Z,99227.48
2019-04-14T18:41:16.258Z,99222.65
2019-04-14T18:44:02.453Z,99228.43
2019-04-14T18:46:46.929Z,99235.48
2019-04-14T18:49:32.746Z,99235.34
2019-04-14T18:52:19.714Z,99235.13
2019-04-14T18:55:05.192Z,99245.02
2019-04-14T18:57:49.957Z,99244.87
2019-04-14T19:00:35.189Z,99243.72
2019-04-14T19:03:20.093Z,99248.08
2019-04-14T19:06:05.485Z,99247.82
2019-04-14T19:08:51.102Z,99258.28
2019-04-14T19:11:35.661Z,99252.80
2019-04-14T19:14:20.682Z,99252.24
2019-04-14T19:17:05.540Z,99267.26
2019-04-14T19:20:00.871Z,99266.10
2019-04-14T19:22:36.976Z,99263.72
2019-04-14T19:25:21.763Z,99265.80
2019-04-14T19:28:06.493Z,99268.66
2019-04-14T19:30:51.823Z,99278.77
2019-04-14T19:33:37.330Z,99280.29
2019-04-14T19:36:22.124Z,99277.37
2019-04-14T19:39:09.384Z,99298.34
2019-04-14T19:41:54.478Z,99279.19
2019-04-14T19:44:39.652Z,99247.27
2019-04-14T19:47:24.266Z,99284.17
2019-04-14T19:50:08.828Z,99291.36
2019-04-14T19:52:55.972Z,99287.09
2019-04-14T19:55:42.752Z,99287.00
2019-04-14T19:58:27.825Z,99291.92
2019-04-14T20:01:12.676Z,99291.55
2019-04-14T20:03:57.644Z,99292.00
2019-04-14T20:06:42.203Z,99288.64
2019-04-14T20:09:26.861Z,99290.64
2019-04-14T20:13:59.338Z,99284.11
2019-04-14T20:16:25.574Z,99293.79
2019-04-14T20:18:51.801Z,99286.23
2019-04-14T20:21:17.823Z,99292.98
2019-04-14T20:23:44.157Z,99287.77
2019-04-14T20:26:10.073Z,99290.23
2019-04-14T20:28:36.198Z,99295.84
2019-04-14T20:31:02.632Z,99297.80
2019-04-14T20:33:28.684Z,99307.89
2019-04-14T20:35:54.514Z,99310.38
2019-04-14T20:38:21.844Z,99310.38
2019-04-14T20:40:47.845Z,99313.13
2019-04-14T20:43:14.174Z,99316.70
2019-04-14T20:45:40.200Z,99304.15
2019-04-14T20:48:06.361Z,99311.14
2019-04-14T20:50:32.512Z,99310.45
2019-04-14T20:52:58.679Z,99303.61
2019-04-14T20:55:24.927Z,99298.64
2019-04-14T20:57:51.132Z,99297.24
2019-04-14T21:00:20.638Z,99307.80
2019-04-14T21:02:51.684Z,99304.36
2019-04-14T21:05:17.808Z,99306.59
2019-04-14T21:07:43.924Z,99309.66
2019-04-14T21:10:10.353Z,99302.78
2019-04-14T21:12:36.278Z,99305.76
2019-04-14T21:15:05.063Z,99301.28
2019-04-14T21:17:31.175Z,99308.13
2019-04-14T21:19:57.058Z,99311.11
2019-04-14T21:22:23.031Z,99312.88
2019-04-14T21:24:49.363Z,99201.00
2019-04-14T21:27:15.278Z,99313.01
2019-04-14T21:29:41.164Z,99312.41
2019-04-14T21:32:07.119Z,99317.53
2019-04-14T21:34:33.042Z,99318.46
2019-04-14T21:36:58.901Z,99320.97
2019-04-14T21:39:24.776Z,99322.14
2019-04-14T21:41:50.804Z,99319.20
2019-04-14T21:44:16.819Z,99322.00
2019-04-14T21:46:42.742Z,99322.22
2019-04-14T21:49:08.660Z,99320.40
2019-04-14T21:51:34.585Z,99318.72
2019-04-14T21:54:00.504Z,99323.37
2019-04-14T21:56:26.624Z,99325.66
2019-04-14T21:58:52.548Z,99326.59
2019-04-14T22:01:23.503Z,99335.56
2019-04-14T22:03:49.513Z,99333.11
2019-04-14T22:06:15.433Z,99324.84
2019-04-14T22:08:41.357Z,99325.20
2019-04-14T22:11:07.368Z,99336.83
2019-04-14T22:13:33.192Z,99329.58
2019-04-14T22:15:59.120Z,99333.72
2019-04-14T22:18:25.112Z,99335.94
2019-04-14T22:20:51.360Z,99336.08
2019-04-14T22:23:17.433Z,99331.02
2019-04-14T22:25:43.405Z,99328.88
2019-04-14T22:28:09.424Z,99336.45
2019-04-14T22:30:35.450Z,99325.06
2019-04-14T22:33:01.472Z,99337.02
2019-04-14T22:35:27.493Z,99340.35
2019-04-14T22:37:53.520Z,99346.26
2019-04-14T22:40:19.549Z,99338.25
2019-04-14T22:42:45.499Z,99336.03
2019-04-14T22:45:11.587Z,99345.66
2019-04-14T22:47:37.505Z,99347.80
2019-04-14T22:50:04.958Z,99345.98
2019-04-14T22:52:30.979Z,99350.27
2019-04-14T22:54:57.028Z,99350.36
2019-04-14T22:57:23.006Z,99352.97
2019-04-14T22:59:48.951Z,99354.77
2019-04-14T23:02:15.070Z,99356.62
2019-04-14T23:04:41.092Z,99319.02
2019-04-14T23:07:06.912Z,99352.87
2019-04-14T23:09:32.935Z,99351.80
2019-04-14T23:11:58.865Z,99357.28
2019-04-14T23:14:24.772Z,99354.68
2019-04-14T23:16:50.695Z,99356.78
2019-04-14T23:19:16.817Z,99360.92
2019-04-14T23:21:43.047Z,99366.87
2019-04-14T23:24:09.276Z,99371.00
2019-04-14T23:26:35.502Z,99352.70
2019-04-14T23:29:01.629Z,99371.11
2019-04-14T23:31:27.751Z,99360.97
2019-04-14T23:33:53.882Z,99375.63
2019-04-14T23:36:19.929Z,99337.55
2019-04-14T23:38:46.024Z,99371.24
2019-04-14T23:41:12.153Z,99369.72
2019-04-14T23:43:39.112Z,99335.49
2019-04-14T23:46:05.633Z,99362.61
2019-04-14T23:48:32.529Z,99367.11
2019-04-14T23:50:58.934Z,99372.00
2019-04-14T23:53:25.565Z,99387.12
2019-04-14T23:55:51.971Z,99380.84
2019-04-14T23:58:18.939Z,99372.00
